sensor_id;sensor_type;location;lat;lon;timestamp;P1;durP1;ratioP1;P2;durP2;ratioP2
13927;SDS011;7036;50.834;4.718;2022-09-12T00:00:20;1.60;;;1.50;;
13927;SDS011;7036;50.834;4.718;2022-09-12T00:02:50;1.63;;;1.53;;
13927;SDS011;7036;50.834;4.718;2022-09-12T00:05:14;1.80;;;1.70;;
13927;SDS011;7036;50.834;4.718;2022-09-12T00:07:41;1.87;;;1.77;;
13927;SDS011;7036;50.834;4.718;2022-09-12T00:10:08;1.90;;;1.80;;
13927;SDS011;7036;50.834;4.718;2022-09-12T00:12:35;1.63;;;1.53;;
13927;SDS011;7036;50.834;4.718;2022-09-12T00:15:02;1.43;;;1.33;;
13927;SDS011;7036;50.834;4.718;2022-09-12T00:17:29;1.60;;;1.50;;
13927;SDS011;7036;50.834;4.718;2022-09-12T00:19:58;2.50;;;1.70;;
13927;SDS011;7036;50.834;4.718;2022-09-12T00:22:24;1.70;;;1.40;;
13927;SDS011;7036;50.834;4.718;2022-09-12T00:24:51;1.70;;;1.60;;
13927;SDS011;7036;50.834;4.718;2022-09-12T00:27:18;2.77;;;1.97;;
13927;SDS011;7036;50.834;4.718;2022-09-12T00:29:45;1.70;;;1.50;;
13927;SDS011;7036;50.834;4.718;2022-09-12T00:32:12;1.80;;;1.70;;
13927;SDS011;7036;50.834;4.718;2022-09-12T00:34:39;1.67;;;1.57;;
13927;SDS011;7036;50.834;4.718;2022-09-12T00:37:06;2.17;;;1.50;;
13927;SDS011;7036;50.834;4.718;2022-09-12T00:39:33;1.43;;;1.33;;
13927;SDS011;7036;50.834;4.718;2022-09-12T00:42:00;1.70;;;1.60;;
13927;SDS011;7036;50.834;4.718;2022-09-12T00:46:56;1.60;;;1.50;;
13927;SDS011;7036;50.834;4.718;2022-09-12T00:49:39;1.98;;;1.80;;
13927;SDS011;7036;50.834;4.718;2022-09-12T00:54:43;1.80;;;1.70;;
13927;SDS011;7036;50.834;4.718;2022-09-12T00:57:09;1.70;;;1.60;;
13927;SDS011;7036;50.834;4.718;2022-09-12T00:59:40;1.97;;;1.60;;
13927;SDS011;7036;50.834;4.718;2022-09-12T01:02:06;2.07;;;1.90;;
13927;SDS011;7036;50.834;4.718;2022-09-12T01:04:38;1.80;;;1.70;;
13927;SDS011;7036;50.834;4.718;2022-09-12T01:07:05;2.00;;;1.90;;
13927;SDS011;7036;50.834;4.718;2022-09-12T01:09:32;1.53;;;1.43;;
13927;SDS011;7036;50.834;4.718;2022-09-12T01:11:59;1.70;;;1.60;;
13927;SDS011;7036;50.834;4.718;2022-09-12T01:14:26;1.60;;;1.50;;
13927;SDS011;7036;50.834;4.718;2022-09-12T01:16:53;1.70;;;1.60;;
13927;SDS011;7036;50.834;4.718;2022-09-12T01:19:39;1.83;;;1.73;;
13927;SDS011;7036;50.834;4.718;2022-09-12T01:30:38;2.30;;;2.10;;
13927;SDS011;7036;50.834;4.718;2022-09-12T01:36:16;1.80;;;1.70;;
13927;SDS011;7036;50.834;4.718;2022-09-12T01:38:42;1.63;;;1.53;;
13927;SDS011;7036;50.834;4.718;2022-09-12T01:41:13;2.13;;;1.90;;
13927;SDS011;7036;50.834;4.718;2022-09-12T01:43:43;1.63;;;1.53;;
13927;SDS011;7036;50.834;4.718;2022-09-12T01:49:00;1.50;;;1.40;;
13927;SDS011;7036;50.834;4.718;2022-09-12T01:51:21;2.13;;;1.97;;
13927;SDS011;7036;50.834;4.718;2022-09-12T01:53:50;1.80;;;1.70;;
13927;SDS011;7036;50.834;4.718;2022-09-12T01:58:48;1.60;;;1.50;;
13927;SDS011;7036;50.834;4.718;2022-09-12T02:01:14;1.73;;;1.57;;
13927;SDS011;7036;50.834;4.718;2022-09-12T02:03:51;1.90;;;1.80;;
13927;SDS011;7036;50.834;4.718;2022-09-12T02:06:25;2.37;;;1.90;;
13927;SDS011;7036;50.834;4.718;2022-09-12T02:08:54;1.73;;;1.63;;
13927;SDS011;7036;50.834;4.718;2022-09-12T02:11:19;1.70;;;1.60;;
13927;SDS011;7036;50.834;4.718;2022-09-12T02:13:51;2.37;;;1.80;;
13927;SDS011;7036;50.834;4.718;2022-09-12T02:16:22;2.00;;;1.80;;
13927;SDS011;7036;50.834;4.718;2022-09-12T02:18:49;2.20;;;1.60;;
13927;SDS011;7036;50.834;4.718;2022-09-12T02:21:15;2.53;;;1.90;;
13927;SDS011;7036;50.834;4.718;2022-09-12T02:23:43;2.00;;;1.67;;
13927;SDS011;7036;50.834;4.718;2022-09-12T02:26:10;1.67;;;1.58;;
13927;SDS011;7036;50.834;4.718;2022-09-12T02:28:37;2.17;;;1.80;;
13927;SDS011;7036;50.834;4.718;2022-09-12T02:31:22;1.90;;;1.80;;
13927;SDS011;7036;50.834;4.718;2022-09-12T02:38:53;1.97;;;1.87;;
13927;SDS011;7036;50.834;4.718;2022-09-12T02:41:20;1.83;;;1.40;;
13927;SDS011;7036;50.834;4.718;2022-09-12T02:43:47;2.03;;;1.53;;
13927;SDS011;7036;50.834;4.718;2022-09-12T02:46:17;1.70;;;1.60;;
13927;SDS011;7036;50.834;4.718;2022-09-12T02:48:43;1.85;;;1.75;;
13927;SDS011;7036;50.834;4.718;2022-09-12T02:51:10;2.43;;;1.83;;
13927;SDS011;7036;50.834;4.718;2022-09-12T02:53:37;1.47;;;1.37;;
13927;SDS011;7036;50.834;4.718;2022-09-12T02:56:04;1.70;;;1.60;;
13927;SDS011;7036;50.834;4.718;2022-09-12T02:58:31;2.53;;;1.70;;
13927;SDS011;7036;50.834;4.718;2022-09-12T03:03:51;1.77;;;1.67;;
13927;SDS011;7036;50.834;4.718;2022-09-12T03:08:57;2.20;;;2.00;;
13927;SDS011;7036;50.834;4.718;2022-09-12T03:14:27;1.87;;;1.77;;
13927;SDS011;7036;50.834;4.718;2022-09-12T03:24:50;1.97;;;1.87;;
13927;SDS011;7036;50.834;4.718;2022-09-12T03:27:19;1.87;;;1.77;;
13927;SDS011;7036;50.834;4.718;2022-09-12T03:29:44;1.97;;;1.87;;
13927;SDS011;7036;50.834;4.718;2022-09-12T03:32:11;1.60;;;1.50;;
13927;SDS011;7036;50.834;4.718;2022-09-12T03:34:39;1.80;;;1.70;;
13927;SDS011;7036;50.834;4.718;2022-09-12T03:37:07;1.70;;;1.60;;
13927;SDS011;7036;50.834;4.718;2022-09-12T03:39:35;2.20;;;1.83;;
13927;SDS011;7036;50.834;4.718;2022-09-12T03:42:02;1.97;;;1.87;;
13927;SDS011;7036;50.834;4.718;2022-09-12T03:44:29;1.80;;;1.70;;
13927;SDS011;7036;50.834;4.718;2022-09-12T03:46:56;1.50;;;1.40;;
13927;SDS011;7036;50.834;4.718;2022-09-12T03:49:23;1.80;;;1.70;;
13927;SDS011;7036;50.834;4.718;2022-09-12T03:51:50;2.20;;;1.90;;
13927;SDS011;7036;50.834;4.718;2022-09-12T03:54:17;1.70;;;1.60;;
13927;SDS011;7036;50.834;4.718;2022-09-12T03:56:44;1.63;;;1.53;;
13927;SDS011;7036;50.834;4.718;2022-09-12T03:59:11;1.85;;;1.75;;
13927;SDS011;7036;50.834;4.718;2022-09-12T04:01:38;1.50;;;1.40;;
13927;SDS011;7036;50.834;4.718;2022-09-12T04:04:05;1.70;;;1.60;;
13927;SDS011;7036;50.834;4.718;2022-09-12T04:06:32;3.97;;;2.00;;
13927;SDS011;7036;50.834;4.718;2022-09-12T04:09:00;2.03;;;1.88;;
13927;SDS011;7036;50.834;4.718;2022-09-12T04:11:28;1.95;;;1.75;;
13927;SDS011;7036;50.834;4.718;2022-09-12T04:13:56;2.42;;;2.22;;
13927;SDS011;7036;50.834;4.718;2022-09-12T04:16:23;2.53;;;1.90;;
13927;SDS011;7036;50.834;4.718;2022-09-12T04:18:50;2.90;;;1.90;;
13927;SDS011;7036;50.834;4.718;2022-09-12T04:21:18;2.10;;;1.90;;
13927;SDS011;7036;50.834;4.718;2022-09-12T04:23:45;2.00;;;1.80;;
13927;SDS011;7036;50.834;4.718;2022-09-12T04:26:13;2.00;;;1.90;;
13927;SDS011;7036;50.834;4.718;2022-09-12T04:28:41;1.75;;;1.60;;
13927;SDS011;7036;50.834;4.718;2022-09-12T04:31:10;2.33;;;1.88;;
13927;SDS011;7036;50.834;4.718;2022-09-12T04:33:37;2.00;;;1.90;;
13927;SDS011;7036;50.834;4.718;2022-09-12T04:36:07;2.17;;;1.87;;
13927;SDS011;7036;50.834;4.718;2022-09-12T04:38:31;2.25;;;2.05;;
13927;SDS011;7036;50.834;4.718;2022-09-12T04:40:59;1.83;;;1.73;;
13927;SDS011;7036;50.834;4.718;2022-09-12T04:43:26;2.93;;;2.07;;
13927;SDS011;7036;50.834;4.718;2022-09-12T04:45:54;2.78;;;2.25;;
13927;SDS011;7036;50.834;4.718;2022-09-12T04:48:22;2.40;;;1.83;;
13927;SDS011;7036;50.834;4.718;2022-09-12T04:50:48;2.13;;;2.03;;
13927;SDS011;7036;50.834;4.718;2022-09-12T04:53:15;1.90;;;1.80;;
13927;SDS011;7036;50.834;4.718;2022-09-12T04:55:43;2.53;;;2.03;;
13927;SDS011;7036;50.834;4.718;2022-09-12T04:58:10;1.87;;;1.77;;
13927;SDS011;7036;50.834;4.718;2022-09-12T05:00:38;1.92;;;1.83;;
13927;SDS011;7036;50.834;4.718;2022-09-12T05:03:06;1.85;;;1.75;;
13927;SDS011;7036;50.834;4.718;2022-09-12T05:05:34;2.70;;;2.10;;
13927;SDS011;7036;50.834;4.718;2022-09-12T05:08:01;3.30;;;2.00;;
13927;SDS011;7036;50.834;4.718;2022-09-12T05:10:28;2.10;;;1.93;;
13927;SDS011;7036;50.834;4.718;2022-09-12T05:12:56;2.58;;;2.03;;
13927;SDS011;7036;50.834;4.718;2022-09-12T05:15:24;2.67;;;2.38;;
13927;SDS011;7036;50.834;4.718;2022-09-12T05:17:52;3.58;;;1.83;;
13927;SDS011;7036;50.834;4.718;2022-09-12T05:20:19;3.13;;;2.10;;
13927;SDS011;7036;50.834;4.718;2022-09-12T05:22:46;2.10;;;1.93;;
13927;SDS011;7036;50.834;4.718;2022-09-12T05:25:14;2.30;;;2.10;;
13927;SDS011;7036;50.834;4.718;2022-09-12T05:27:42;1.90;;;1.80;;
13927;SDS011;7036;50.834;4.718;2022-09-12T05:30:09;1.70;;;1.60;;
13927;SDS011;7036;50.834;4.718;2022-09-12T05:32:37;2.37;;;1.93;;
13927;SDS011;7036;50.834;4.718;2022-09-12T05:35:03;2.30;;;2.10;;
13927;SDS011;7036;50.834;4.718;2022-09-12T05:37:30;1.83;;;1.73;;
13927;SDS011;7036;50.834;4.718;2022-09-12T05:39:57;1.70;;;1.60;;
13927;SDS011;7036;50.834;4.718;2022-09-12T05:42:28;2.03;;;1.90;;
13927;SDS011;7036;50.834;4.718;2022-09-12T05:44:54;1.50;;;1.40;;
13927;SDS011;7036;50.834;4.718;2022-09-12T05:47:21;2.10;;;1.90;;
13927;SDS011;7036;50.834;4.718;2022-09-12T05:49:49;1.92;;;1.70;;
13927;SDS011;7036;50.834;4.718;2022-09-12T05:52:16;1.95;;;1.85;;
13927;SDS011;7036;50.834;4.718;2022-09-12T05:54:43;3.47;;;2.03;;
13927;SDS011;7036;50.834;4.718;2022-09-12T05:57:10;2.35;;;2.10;;
13927;SDS011;7036;50.834;4.718;2022-09-12T05:59:38;1.75;;;1.65;;
13927;SDS011;7036;50.834;4.718;2022-09-12T06:02:07;2.08;;;1.65;;
13927;SDS011;7036;50.834;4.718;2022-09-12T06:04:33;2.63;;;1.87;;
13927;SDS011;7036;50.834;4.718;2022-09-12T06:07:00;2.00;;;1.80;;
13927;SDS011;7036;50.834;4.718;2022-09-12T06:09:28;2.35;;;1.90;;
13927;SDS011;7036;50.834;4.718;2022-09-12T06:11:56;2.72;;;2.00;;
13927;SDS011;7036;50.834;4.718;2022-09-12T06:14:22;2.07;;;1.80;;
13927;SDS011;7036;50.834;4.718;2022-09-12T06:16:50;4.63;;;2.15;;
13927;SDS011;7036;50.834;4.718;2022-09-12T06:19:18;2.60;;;1.92;;
13927;SDS011;7036;50.834;4.718;2022-09-12T06:21:46;2.30;;;2.08;;
13927;SDS011;7036;50.834;4.718;2022-09-12T06:24:13;2.95;;;2.55;;
13927;SDS011;7036;50.834;4.718;2022-09-12T06:26:43;3.45;;;2.47;;
13927;SDS011;7036;50.834;4.718;2022-09-12T06:29:10;5.17;;;2.67;;
13927;SDS011;7036;50.834;4.718;2022-09-12T06:31:39;2.13;;;1.80;;
13927;SDS011;7036;50.834;4.718;2022-09-12T06:34:06;3.25;;;2.15;;
13927;SDS011;7036;50.834;4.718;2022-09-12T06:36:36;4.93;;;2.53;;
13927;SDS011;7036;50.834;4.718;2022-09-12T06:39:04;3.43;;;2.07;;
13927;SDS011;7036;50.834;4.718;2022-09-12T06:41:30;3.07;;;2.77;;
13927;SDS011;7036;50.834;4.718;2022-09-12T06:43:57;8.23;;;2.50;;
13927;SDS011;7036;50.834;4.718;2022-09-12T06:46:25;3.05;;;2.15;;
13927;SDS011;7036;50.834;4.718;2022-09-12T06:48:56;4.00;;;2.35;;
13927;SDS011;7036;50.834;4.718;2022-09-12T06:51:21;2.15;;;1.90;;
13927;SDS011;7036;50.834;4.718;2022-09-12T06:53:49;4.57;;;1.92;;
13927;SDS011;7036;50.834;4.718;2022-09-12T06:56:18;2.28;;;2.03;;
13927;SDS011;7036;50.834;4.718;2022-09-12T06:58:44;2.40;;;2.20;;
13927;SDS011;7036;50.834;4.718;2022-09-12T07:01:12;2.80;;;2.20;;
13927;SDS011;7036;50.834;4.718;2022-09-12T07:03:41;7.40;;;2.50;;
13927;SDS011;7036;50.834;4.718;2022-09-12T07:06:09;6.10;;;2.33;;
13927;SDS011;7036;50.834;4.718;2022-09-12T07:08:36;6.72;;;2.90;;
13927;SDS011;7036;50.834;4.718;2022-09-12T07:11:16;4.55;;;2.55;;
13927;SDS011;7036;50.834;4.718;2022-09-12T07:13:49;8.57;;;2.90;;
13927;SDS011;7036;50.834;4.718;2022-09-12T07:16:15;7.87;;;2.40;;
13927;SDS011;7036;50.834;4.718;2022-09-12T07:18:42;12.32;;;3.22;;
13927;SDS011;7036;50.834;4.718;2022-09-12T07:21:10;7.30;;;2.88;;
13927;SDS011;7036;50.834;4.718;2022-09-12T07:23:37;5.73;;;2.87;;
13927;SDS011;7036;50.834;4.718;2022-09-12T07:26:04;6.93;;;2.90;;
13927;SDS011;7036;50.834;4.718;2022-09-12T07:28:32;7.73;;;3.07;;
13927;SDS011;7036;50.834;4.718;2022-09-12T07:31:20;6.60;;;2.63;;
13927;SDS011;7036;50.834;4.718;2022-09-12T07:33:31;4.47;;;2.80;;
13927;SDS011;7036;50.834;4.718;2022-09-12T07:36:03;7.43;;;2.77;;
13927;SDS011;7036;50.834;4.718;2022-09-12T07:38:27;8.10;;;3.20;;
13927;SDS011;7036;50.834;4.718;2022-09-12T07:40:54;7.97;;;3.23;;
13927;SDS011;7036;50.834;4.718;2022-09-12T07:43:21;7.87;;;3.97;;
13927;SDS011;7036;50.834;4.718;2022-09-12T07:45:48;7.30;;;3.47;;
13927;SDS011;7036;50.834;4.718;2022-09-12T07:48:15;7.20;;;3.07;;
13927;SDS011;7036;50.834;4.718;2022-09-12T07:50:42;10.48;;;3.42;;
13927;SDS011;7036;50.834;4.718;2022-09-12T07:53:09;5.57;;;3.07;;
13927;SDS011;7036;50.834;4.718;2022-09-12T07:55:36;5.53;;;3.30;;
13927;SDS011;7036;50.834;4.718;2022-09-12T07:58:03;7.67;;;3.33;;
13927;SDS011;7036;50.834;4.718;2022-09-12T08:00:30;7.03;;;3.13;;
13927;SDS011;7036;50.834;4.718;2022-09-12T08:02:57;5.93;;;3.27;;
13927;SDS011;7036;50.834;4.718;2022-09-12T08:05:24;9.20;;;3.37;;
13927;SDS011;7036;50.834;4.718;2022-09-12T08:07:51;4.80;;;3.37;;
13927;SDS011;7036;50.834;4.718;2022-09-12T08:10:18;4.80;;;2.77;;
13927;SDS011;7036;50.834;4.718;2022-09-12T08:12:45;6.80;;;3.23;;
13927;SDS011;7036;50.834;4.718;2022-09-12T08:15:11;8.10;;;3.53;;
13927;SDS011;7036;50.834;4.718;2022-09-12T08:17:38;6.97;;;3.20;;
13927;SDS011;7036;50.834;4.718;2022-09-12T08:20:06;6.10;;;3.07;;
13927;SDS011;7036;50.834;4.718;2022-09-12T08:22:34;5.57;;;3.17;;
13927;SDS011;7036;50.834;4.718;2022-09-12T08:25:00;5.13;;;3.00;;
13927;SDS011;7036;50.834;4.718;2022-09-12T08:27:27;5.23;;;2.87;;
13927;SDS011;7036;50.834;4.718;2022-09-12T08:29:55;8.70;;;3.20;;
13927;SDS011;7036;50.834;4.718;2022-09-12T08:32:22;4.63;;;3.20;;
13927;SDS011;7036;50.834;4.718;2022-09-12T08:34:49;6.27;;;3.00;;
13927;SDS011;7036;50.834;4.718;2022-09-12T08:37:16;6.77;;;2.80;;
13927;SDS011;7036;50.834;4.718;2022-09-12T08:39:43;5.93;;;2.87;;
13927;SDS011;7036;50.834;4.718;2022-09-12T08:42:11;4.53;;;2.57;;
13927;SDS011;7036;50.834;4.718;2022-09-12T08:47:21;6.23;;;3.67;;
13927;SDS011;7036;50.834;4.718;2022-09-12T08:52:46;7.17;;;3.10;;
13927;SDS011;7036;50.834;4.718;2022-09-12T08:57:45;4.83;;;3.27;;
13927;SDS011;7036;50.834;4.718;2022-09-12T09:00:13;5.37;;;3.67;;
13927;SDS011;7036;50.834;4.718;2022-09-12T09:02:53;8.37;;;3.83;;
13927;SDS011;7036;50.834;4.718;2022-09-12T09:05:18;7.03;;;3.20;;
13927;SDS011;7036;50.834;4.718;2022-09-12T09:07:49;4.30;;;3.40;;
13927;SDS011;7036;50.834;4.718;2022-09-12T09:10:17;6.17;;;2.93;;
13927;SDS011;7036;50.834;4.718;2022-09-12T09:15:46;10.40;;;3.60;;
13927;SDS011;7036;50.834;4.718;2022-09-12T09:18:30;5.97;;;3.57;;
13927;SDS011;7036;50.834;4.718;2022-09-12T09:20:56;3.40;;;3.03;;
13927;SDS011;7036;50.834;4.718;2022-09-12T09:23:28;3.03;;;2.70;;
13927;SDS011;7036;50.834;4.718;2022-09-12T09:25:59;6.73;;;3.63;;
13927;SDS011;7036;50.834;4.718;2022-09-12T09:31:16;4.87;;;2.70;;
13927;SDS011;7036;50.834;4.718;2022-09-12T09:33:42;8.43;;;3.43;;
13927;SDS011;7036;50.834;4.718;2022-09-12T09:36:16;4.33;;;2.83;;
13927;SDS011;7036;50.834;4.718;2022-09-12T09:38:48;5.70;;;2.90;;
13927;SDS011;7036;50.834;4.718;2022-09-12T09:44:26;5.10;;;2.90;;
13927;SDS011;7036;50.834;4.718;2022-09-12T09:46:52;6.30;;;2.80;;
13927;SDS011;7036;50.834;4.718;2022-09-12T09:49:18;6.20;;;2.77;;
13927;SDS011;7036;50.834;4.718;2022-09-12T09:51:45;5.80;;;3.30;;
13927;SDS011;7036;50.834;4.718;2022-09-12T09:54:22;6.03;;;3.10;;
13927;SDS011;7036;50.834;4.718;2022-09-12T09:56:39;6.90;;;2.90;;
13927;SDS011;7036;50.834;4.718;2022-09-12T10:04:56;8.40;;;2.77;;
13927;SDS011;7036;50.834;4.718;2022-09-12T10:06:43;4.43;;;2.40;;
13927;SDS011;7036;50.834;4.718;2022-09-12T10:11:40;7.43;;;3.07;;
13927;SDS011;7036;50.834;4.718;2022-09-12T10:14:24;3.97;;;2.53;;
13927;SDS011;7036;50.834;4.718;2022-09-12T10:16:47;6.07;;;2.47;;
13927;SDS011;7036;50.834;4.718;2022-09-12T10:19:01;4.53;;;2.77;;
13927;SDS011;7036;50.834;4.718;2022-09-12T10:21:32;4.77;;;2.80;;
13927;SDS011;7036;50.834;4.718;2022-09-12T10:24:14;6.40;;;2.63;;
13927;SDS011;7036;50.834;4.718;2022-09-12T10:26:27;7.60;;;2.90;;
13927;SDS011;7036;50.834;4.718;2022-09-12T10:28:53;4.70;;;2.70;;
13927;SDS011;7036;50.834;4.718;2022-09-12T10:31:24;6.30;;;2.63;;
13927;SDS011;7036;50.834;4.718;2022-09-12T10:33:50;5.37;;;2.60;;
13927;SDS011;7036;50.834;4.718;2022-09-12T10:36:17;2.80;;;2.60;;
13927;SDS011;7036;50.834;4.718;2022-09-12T10:38:56;4.03;;;2.60;;
13927;SDS011;7036;50.834;4.718;2022-09-12T10:41:23;4.47;;;2.50;;
13927;SDS011;7036;50.834;4.718;2022-09-12T10:43:50;3.20;;;2.30;;
13927;SDS011;7036;50.834;4.718;2022-09-12T10:48:50;5.40;;;2.70;;
13927;SDS011;7036;50.834;4.718;2022-09-12T10:53:53;4.10;;;2.60;;
13927;SDS011;7036;50.834;4.718;2022-09-12T10:56:23;2.93;;;2.63;;
13927;SDS011;7036;50.834;4.718;2022-09-12T11:01:32;3.10;;;2.10;;
13927;SDS011;7036;50.834;4.718;2022-09-12T11:06:38;3.53;;;2.33;;
13927;SDS011;7036;50.834;4.718;2022-09-12T11:09:05;2.73;;;2.27;;
13927;SDS011;7036;50.834;4.718;2022-09-12T11:11:43;3.67;;;2.60;;
13927;SDS011;7036;50.834;4.718;2022-09-12T11:16:51;3.67;;;2.40;;
13927;SDS011;7036;50.834;4.718;2022-09-12T11:19:28;3.73;;;1.90;;
13927;SDS011;7036;50.834;4.718;2022-09-12T11:22:15;2.77;;;2.30;;
13927;SDS011;7036;50.834;4.718;2022-09-12T11:30:06;4.33;;;2.63;;
13927;SDS011;7036;50.834;4.718;2022-09-12T11:35:19;3.77;;;2.13;;
13927;SDS011;7036;50.834;4.718;2022-09-12T11:43:21;4.07;;;2.07;;
13927;SDS011;7036;50.834;4.718;2022-09-12T11:45:44;3.40;;;2.23;;
13927;SDS011;7036;50.834;4.718;2022-09-12T11:48:15;3.13;;;2.00;;
13927;SDS011;7036;50.834;4.718;2022-09-12T11:50:38;3.10;;;2.20;;
13927;SDS011;7036;50.834;4.718;2022-09-12T11:53:20;2.83;;;2.33;;
13927;SDS011;7036;50.834;4.718;2022-09-12T11:55:51;2.80;;;2.03;;
13927;SDS011;7036;50.834;4.718;2022-09-12T11:58:21;5.60;;;2.00;;
13927;SDS011;7036;50.834;4.718;2022-09-12T12:00:48;2.53;;;2.27;;
13927;SDS011;7036;50.834;4.718;2022-09-12T12:03:15;2.50;;;2.30;;
13927;SDS011;7036;50.834;4.718;2022-09-12T12:05:54;2.80;;;2.40;;
13927;SDS011;7036;50.834;4.718;2022-09-12T12:08:20;4.47;;;2.27;;
13927;SDS011;7036;50.834;4.718;2022-09-12T12:10:48;3.23;;;2.17;;
13927;SDS011;7036;50.834;4.718;2022-09-12T12:13:29;2.30;;;1.77;;
13927;SDS011;7036;50.834;4.718;2022-09-12T12:15:56;2.50;;;1.67;;
13927;SDS011;7036;50.834;4.718;2022-09-12T12:18:26;2.57;;;1.73;;
13927;SDS011;7036;50.834;4.718;2022-09-12T12:20:52;1.83;;;1.63;;
13927;SDS011;7036;50.834;4.718;2022-09-12T12:25:52;2.80;;;1.83;;
13927;SDS011;7036;50.834;4.718;2022-09-12T12:31:11;4.07;;;2.00;;
13927;SDS011;7036;50.834;4.718;2022-09-12T12:36:09;3.33;;;2.17;;
13927;SDS011;7036;50.834;4.718;2022-09-12T12:38:38;3.80;;;2.33;;
13927;SDS011;7036;50.834;4.718;2022-09-12T12:43:47;9.80;;;2.37;;
13927;SDS011;7036;50.834;4.718;2022-09-12T12:46:13;4.63;;;2.00;;
13927;SDS011;7036;50.834;4.718;2022-09-12T12:51:32;1.67;;;1.57;;
13927;SDS011;7036;50.834;4.718;2022-09-12T12:59:47;2.23;;;1.80;;
13927;SDS011;7036;50.834;4.718;2022-09-12T13:02:18;2.50;;;1.67;;
13927;SDS011;7036;50.834;4.718;2022-09-12T13:04:44;2.10;;;1.50;;
13927;SDS011;7036;50.834;4.718;2022-09-12T13:07:12;2.00;;;1.80;;
13927;SDS011;7036;50.834;4.718;2022-09-12T13:09:42;2.23;;;1.90;;
13927;SDS011;7036;50.834;4.718;2022-09-12T13:12:08;2.20;;;1.70;;
13927;SDS011;7036;50.834;4.718;2022-09-12T13:14:48;2.33;;;1.63;;
13927;SDS011;7036;50.834;4.718;2022-09-12T13:17:22;1.83;;;1.70;;
13927;SDS011;7036;50.834;4.718;2022-09-12T13:19:48;1.77;;;1.67;;
13927;SDS011;7036;50.834;4.718;2022-09-12T13:22:15;1.70;;;1.60;;
13927;SDS011;7036;50.834;4.718;2022-09-12T13:24:42;2.13;;;1.57;;
13927;SDS011;7036;50.834;4.718;2022-09-12T13:29:44;1.67;;;1.57;;
13927;SDS011;7036;50.834;4.718;2022-09-12T13:32:10;1.63;;;1.53;;
13927;SDS011;7036;50.834;4.718;2022-09-12T13:34:55;1.83;;;1.53;;
13927;SDS011;7036;50.834;4.718;2022-09-12T13:43:13;4.77;;;1.60;;
13927;SDS011;7036;50.834;4.718;2022-09-12T13:45:43;2.57;;;1.60;;
13927;SDS011;7036;50.834;4.718;2022-09-12T13:48:12;2.00;;;1.80;;
13927;SDS011;7036;50.834;4.718;2022-09-12T13:50:56;3.03;;;1.60;;
13927;SDS011;7036;50.834;4.718;2022-09-12T13:53:25;1.40;;;1.13;;
13927;SDS011;7036;50.834;4.718;2022-09-12T13:55:56;2.43;;;1.47;;
13927;SDS011;7036;50.834;4.718;2022-09-12T13:58:28;1.77;;;1.57;;
13927;SDS011;7036;50.834;4.718;2022-09-12T14:01:02;3.60;;;1.63;;
13927;SDS011;7036;50.834;4.718;2022-09-12T14:03:37;2.87;;;1.90;;
13927;SDS011;7036;50.834;4.718;2022-09-12T14:06:19;1.80;;;1.33;;
13927;SDS011;7036;50.834;4.718;2022-09-12T14:08:46;1.73;;;1.17;;
13927;SDS011;7036;50.834;4.718;2022-09-12T14:11:29;3.00;;;1.73;;
13927;SDS011;7036;50.834;4.718;2022-09-12T14:13:55;5.43;;;1.50;;
13927;SDS011;7036;50.834;4.718;2022-09-12T14:18:55;3.90;;;1.83;;
13927;SDS011;7036;50.834;4.718;2022-09-12T14:23:57;4.73;;;1.83;;
13927;SDS011;7036;50.834;4.718;2022-09-12T14:26:24;2.10;;;1.80;;
13927;SDS011;7036;50.834;4.718;2022-09-12T14:28:51;4.27;;;1.53;;
13927;SDS011;7036;50.834;4.718;2022-09-12T14:31:29;2.33;;;1.27;;
13927;SDS011;7036;50.834;4.718;2022-09-12T14:33:56;2.83;;;1.60;;
13927;SDS011;7036;50.834;4.718;2022-09-12T14:36:44;2.47;;;1.60;;
13927;SDS011;7036;50.834;4.718;2022-09-12T14:39:17;2.27;;;1.70;;
13927;SDS011;7036;50.834;4.718;2022-09-12T14:41:39;6.37;;;1.57;;
13927;SDS011;7036;50.834;4.718;2022-09-12T14:44:14;2.23;;;1.50;;
13927;SDS011;7036;50.834;4.718;2022-09-12T14:46:36;2.23;;;1.33;;
13927;SDS011;7036;50.834;4.718;2022-09-12T14:49:06;2.47;;;1.50;;
13927;SDS011;7036;50.834;4.718;2022-09-12T14:51:37;1.37;;;1.27;;
13927;SDS011;7036;50.834;4.718;2022-09-12T14:54:03;1.77;;;1.67;;
13927;SDS011;7036;50.834;4.718;2022-09-12T14:56:40;1.47;;;1.37;;
13927;SDS011;7036;50.834;4.718;2022-09-12T15:04:42;2.80;;;1.80;;
13927;SDS011;7036;50.834;4.718;2022-09-12T15:10:00;3.13;;;1.50;;
13927;SDS011;7036;50.834;4.718;2022-09-12T15:12:25;1.40;;;1.30;;
13927;SDS011;7036;50.834;4.718;2022-09-12T15:14:54;3.00;;;1.33;;
13927;SDS011;7036;50.834;4.718;2022-09-12T15:17:19;2.73;;;1.70;;
13927;SDS011;7036;50.834;4.718;2022-09-12T15:19:46;1.30;;;1.20;;
13927;SDS011;7036;50.834;4.718;2022-09-12T15:22:14;2.17;;;1.67;;
13927;SDS011;7036;50.834;4.718;2022-09-12T15:24:40;1.77;;;1.67;;
13927;SDS011;7036;50.834;4.718;2022-09-12T15:27:08;3.03;;;1.70;;
13927;SDS011;7036;50.834;4.718;2022-09-12T15:29:34;2.00;;;1.60;;
13927;SDS011;7036;50.834;4.718;2022-09-12T15:32:01;3.00;;;1.60;;
13927;SDS011;7036;50.834;4.718;2022-09-12T15:34:28;1.77;;;1.60;;
13927;SDS011;7036;50.834;4.718;2022-09-12T15:36:55;1.60;;;1.50;;
13927;SDS011;7036;50.834;4.718;2022-09-12T15:39:22;2.77;;;1.70;;
13927;SDS011;7036;50.834;4.718;2022-09-12T15:41:49;3.37;;;1.67;;
13927;SDS011;7036;50.834;4.718;2022-09-12T15:44:16;1.73;;;1.30;;
13927;SDS011;7036;50.834;4.718;2022-09-12T15:46:43;1.47;;;1.37;;
13927;SDS011;7036;50.834;4.718;2022-09-12T15:49:10;2.60;;;1.30;;
13927;SDS011;7036;50.834;4.718;2022-09-12T15:51:37;4.70;;;1.50;;
13927;SDS011;7036;50.834;4.718;2022-09-12T15:54:04;1.73;;;1.50;;
13927;SDS011;7036;50.834;4.718;2022-09-12T15:56:32;1.83;;;1.50;;
13927;SDS011;7036;50.834;4.718;2022-09-12T15:59:01;1.80;;;1.60;;
13927;SDS011;7036;50.834;4.718;2022-09-12T16:01:26;2.77;;;1.60;;
13927;SDS011;7036;50.834;4.718;2022-09-12T16:03:52;1.63;;;1.53;;
13927;SDS011;7036;50.834;4.718;2022-09-12T16:06:19;1.43;;;1.33;;
13927;SDS011;7036;50.834;4.718;2022-09-12T16:08:46;3.17;;;1.37;;
13927;SDS011;7036;50.834;4.718;2022-09-12T16:11:20;2.50;;;1.60;;
13927;SDS011;7036;50.834;4.718;2022-09-12T16:13:46;1.53;;;1.43;;
13927;SDS011;7036;50.834;4.718;2022-09-12T16:16:13;1.70;;;1.23;;
13927;SDS011;7036;50.834;4.718;2022-09-12T16:18:40;1.93;;;1.40;;
13927;SDS011;7036;50.834;4.718;2022-09-12T16:21:07;2.27;;;1.20;;
13927;SDS011;7036;50.834;4.718;2022-09-12T16:23:34;1.57;;;1.47;;
13927;SDS011;7036;50.834;4.718;2022-09-12T16:26:04;1.67;;;1.37;;
13927;SDS011;7036;50.834;4.718;2022-09-12T16:28:31;1.80;;;1.33;;
13927;SDS011;7036;50.834;4.718;2022-09-12T16:30:59;2.03;;;1.47;;
13927;SDS011;7036;50.834;4.718;2022-09-12T16:33:25;1.00;;;0.90;;
13927;SDS011;7036;50.834;4.718;2022-09-12T16:35:52;1.47;;;1.27;;
13927;SDS011;7036;50.834;4.718;2022-09-12T16:38:20;2.57;;;1.40;;
13927;SDS011;7036;50.834;4.718;2022-09-12T16:40:46;1.73;;;1.50;;
13927;SDS011;7036;50.834;4.718;2022-09-12T16:43:13;1.50;;;1.37;;
13927;SDS011;7036;50.834;4.718;2022-09-12T16:45:40;2.80;;;1.60;;
13927;SDS011;7036;50.834;4.718;2022-09-12T16:48:07;4.00;;;1.50;;
13927;SDS011;7036;50.834;4.718;2022-09-12T16:50:34;1.20;;;1.10;;
13927;SDS011;7036;50.834;4.718;2022-09-12T16:53:01;2.50;;;1.43;;
13927;SDS011;7036;50.834;4.718;2022-09-12T16:55:28;1.53;;;1.23;;
13927;SDS011;7036;50.834;4.718;2022-09-12T16:57:55;2.20;;;1.60;;
13927;SDS011;7036;50.834;4.718;2022-09-12T17:00:22;1.67;;;1.20;;
13927;SDS011;7036;50.834;4.718;2022-09-12T17:02:49;3.13;;;1.47;;
13927;SDS011;7036;50.834;4.718;2022-09-12T17:05:15;2.07;;;1.83;;
13927;SDS011;7036;50.834;4.718;2022-09-12T17:07:43;1.40;;;1.23;;
13927;SDS011;7036;50.834;4.718;2022-09-12T17:10:10;4.10;;;1.43;;
13927;SDS011;7036;50.834;4.718;2022-09-12T17:12:37;4.23;;;1.77;;
13927;SDS011;7036;50.834;4.718;2022-09-12T17:15:04;1.63;;;1.47;;
13927;SDS011;7036;50.834;4.718;2022-09-12T17:17:31;1.77;;;1.53;;
13927;SDS011;7036;50.834;4.718;2022-09-12T17:19:58;2.50;;;1.40;;
13927;SDS011;7036;50.834;4.718;2022-09-12T17:22:25;2.53;;;1.27;;